sensor_id;sensor_type;location;lat;lon;timestamp;temperature;humidity
10889;DHT22;5497;51.388;6.780;2022-12-20T00:01:17;11.80;99.90
10889;DHT22;5497;51.388;6.780;2022-12-20T00:03:44;11.80;99.90
10889;DHT22;5497;51.388;6.780;2022-12-20T00:06:12;11.90;99.90
10889;DHT22;5497;51.388;6.780;2022-12-20T00:08:39;11.90;99.90
10889;DHT22;5497;51.388;6.780;2022-12-20T00:11:06;13.20;99.90
10889;DHT22;5497;51.388;6.780;2022-12-20T00:13:34;11.90;99.90
10889;DHT22;5497;51.388;6.780;2022-12-20T00:16:04;11.90;99.90
10889;DHT22;5497;51.388;6.780;2022-12-20T00:18:31;11.90;99.90
10889;DHT22;5497;51.388;6.780;2022-12-20T00:20:58;11.90;99.90
10889;DHT22;5497;51.388;6.780;2022-12-20T00:23:27;11.90;99.90
10889;DHT22;5497;51.388;6.780;2022-12-20T00:25:58;11.90;99.90
10889;DHT22;5497;51.388;6.780;2022-12-20T00:28:25;11.90;99.90
10889;DHT22;5497;51.388;6.780;2022-12-20T00:30:52;11.80;99.90
10889;DHT22;5497;51.388;6.780;2022-12-20T00:33:19;11.80;99.90
10889;DHT22;5497;51.388;6.780;2022-12-20T00:35:46;13.00;99.90
10889;DHT22;5497;51.388;6.780;2022-12-20T00:38:12;11.70;99.90
10889;DHT22;5497;51.388;6.780;2022-12-20T00:40:41;11.80;99.90
10889;DHT22;5497;51.388;6.780;2022-12-20T00:43:08;11.80;99.90
10889;DHT22;5497;51.388;6.780;2022-12-20T00:45:36;11.80;99.90
10889;DHT22;5497;51.388;6.780;2022-12-20T00:48:04;11.80;99.90
10889;DHT22;5497;51.388;6.780;2022-12-20T00:50:31;11.80;99.90
10889;DHT22;5497;51.388;6.780;2022-12-20T00:52:57;11.80;99.90
10889;DHT22;5497;51.388;6.780;2022-12-20T00:55:24;11.80;99.90
10889;DHT22;5497;51.388;6.780;2022-12-20T00:57:52;11.80;99.90
10889;DHT22;5497;51.388;6.780;2022-12-20T01:00:19;11.80;99.90
10889;DHT22;5497;51.388;6.780;2022-12-20T01:02:46;11.80;99.90
10889;DHT22;5497;51.388;6.780;2022-12-20T01:05:13;11.80;99.90
10889;DHT22;5497;51.388;6.780;2022-12-20T01:07:40;11.80;99.90
10889;DHT22;5497;51.388;6.780;2022-12-20T01:10:07;11.80;99.90
10889;DHT22;5497;51.388;6.780;2022-12-20T01:12:34;11.30;99.90
10889;DHT22;5497;51.388;6.780;2022-12-20T01:15:04;11.80;99.90
10889;DHT22;5497;51.388;6.780;2022-12-20T01:17:31;11.90;99.90
10889;DHT22;5497;51.388;6.780;2022-12-20T01:19:58;11.90;99.90
10889;DHT22;5497;51.388;6.780;2022-12-20T01:22:25;11.90;99.90
10889;DHT22;5497;51.388;6.780;2022-12-20T01:24:51;11.90;99.90
10889;DHT22;5497;51.388;6.780;2022-12-20T01:27:18;11.90;99.90
10889;DHT22;5497;51.388;6.780;2022-12-20T01:29:45;11.90;99.90
10889;DHT22;5497;51.388;6.780;2022-12-20T01:32:13;12.00;99.90
10889;DHT22;5497;51.388;6.780;2022-12-20T01:34:40;12.00;99.90
10889;DHT22;5497;51.388;6.780;2022-12-20T01:37:07;12.00;99.90
10889;DHT22;5497;51.388;6.780;2022-12-20T01:39:34;12.00;99.90
10889;DHT22;5497;51.388;6.780;2022-12-20T01:42:01;12.00;99.90
10889;DHT22;5497;51.388;6.780;2022-12-20T01:47:15;12.00;99.90
10889;DHT22;5497;51.388;6.780;2022-12-20T01:54:56;12.10;99.90
10889;DHT22;5497;51.388;6.780;2022-12-20T01:57:24;12.10;99.90
10889;DHT22;5497;51.388;6.780;2022-12-20T01:59:52;12.10;99.90
10889;DHT22;5497;51.388;6.780;2022-12-20T02:02:22;12.10;99.90
10889;DHT22;5497;51.388;6.780;2022-12-20T02:04:49;12.10;99.90
10889;DHT22;5497;51.388;6.780;2022-12-20T02:07:16;12.10;99.90
10889;DHT22;5497;51.388;6.780;2022-12-20T02:09:45;12.10;99.90
10889;DHT22;5497;51.388;6.780;2022-12-20T02:12:13;12.00;99.90
10889;DHT22;5497;51.388;6.780;2022-12-20T02:14:48;12.00;99.90
10889;DHT22;5497;51.388;6.780;2022-12-20T02:17:24;12.00;99.90
10889;DHT22;5497;51.388;6.780;2022-12-20T02:22:45;12.00;99.90
10889;DHT22;5497;51.388;6.780;2022-12-20T02:25:19;12.00;99.90
10889;DHT22;5497;51.388;6.780;2022-12-20T02:27:52;12.00;99.90
10889;DHT22;5497;51.388;6.780;2022-12-20T02:30:22;12.00;99.90
10889;DHT22;5497;51.388;6.780;2022-12-20T02:32:53;12.00;99.90
10889;DHT22;5497;51.388;6.780;2022-12-20T02:35:23;12.00;99.90
10889;DHT22;5497;51.388;6.780;2022-12-20T02:37:52;12.00;99.90
10889;DHT22;5497;51.388;6.780;2022-12-20T02:40:21;12.00;99.90
10889;DHT22;5497;51.388;6.780;2022-12-20T02:42:49;11.90;99.90
10889;DHT22;5497;51.388;6.780;2022-12-20T02:45:18;11.90;99.90
10889;DHT22;5497;51.388;6.780;2022-12-20T02:47:48;11.90;99.90
10889;DHT22;5497;51.388;6.780;2022-12-20T02:50:19;11.80;99.90
10889;DHT22;5497;51.388;6.780;2022-12-20T02:52:47;11.80;99.90
10889;DHT22;5497;51.388;6.780;2022-12-20T02:55:15;11.60;99.90
10889;DHT22;5497;51.388;6.780;2022-12-20T02:57:44;11.70;99.90
10889;DHT22;5497;51.388;6.780;2022-12-20T03:00:14;11.70;99.90
10889;DHT22;5497;51.388;6.780;2022-12-20T03:02:41;11.70;99.90
10889;DHT22;5497;51.388;6.780;2022-12-20T03:05:27;11.60;99.90
10889;DHT22;5497;51.388;6.780;2022-12-20T03:07:54;11.60;99.90
10889;DHT22;5497;51.388;6.780;2022-12-20T03:10:23;11.60;99.90
10889;DHT22;5497;51.388;6.780;2022-12-20T03:12:50;11.40;99.90
10889;DHT22;5497;51.388;6.780;2022-12-20T03:15:17;11.40;99.90
10889;DHT22;5497;51.388;6.780;2022-12-20T03:17:45;11.30;99.90
10889;DHT22;5497;51.388;6.780;2022-12-20T03:20:12;11.30;99.90
10889;DHT22;5497;51.388;6.780;2022-12-20T03:22:40;11.20;99.90
10889;DHT22;5497;51.388;6.780;2022-12-20T03:25:07;11.10;99.90
10889;DHT22;5497;51.388;6.780;2022-12-20T03:27:34;11.10;99.90
10889;DHT22;5497;51.388;6.780;2022-12-20T03:30:02;11.00;99.90
10889;DHT22;5497;51.388;6.780;2022-12-20T03:32:32;11.00;99.90
10889;DHT22;5497;51.388;6.780;2022-12-20T03:34:59;10.90;99.90
10889;DHT22;5497;51.388;6.780;2022-12-20T03:37:32;10.80;99.90
10889;DHT22;5497;51.388;6.780;2022-12-20T03:40:02;10.80;99.90
10889;DHT22;5497;51.388;6.780;2022-12-20T03:42:29;10.80;99.90
10889;DHT22;5497;51.388;6.780;2022-12-20T03:44:56;10.80;99.90
10889;DHT22;5497;51.388;6.780;2022-12-20T03:47:26;10.70;99.90
10889;DHT22;5497;51.388;6.780;2022-12-20T03:49:54;10.70;99.90
10889;DHT22;5497;51.388;6.780;2022-12-20T03:52:21;10.70;99.90
10889;DHT22;5497;51.388;6.780;2022-12-20T03:54:48;10.70;99.90
10889;DHT22;5497;51.388;6.780;2022-12-20T03:57:21;10.70;99.90
10889;DHT22;5497;51.388;6.780;2022-12-20T03:59:50;10.70;99.90
10889;DHT22;5497;51.388;6.780;2022-12-20T04:02:19;10.70;99.90
10889;DHT22;5497;51.388;6.780;2022-12-20T04:04:45;10.70;99.90
10889;DHT22;5497;51.388;6.780;2022-12-20T04:07:13;11.30;99.90
10889;DHT22;5497;51.388;6.780;2022-12-20T04:09:44;10.70;99.90
10889;DHT22;5497;51.388;6.780;2022-12-20T04:12:12;10.60;99.90
10889;DHT22;5497;51.388;6.780;2022-12-20T04:14:40;10.60;99.90
10889;DHT22;5497;51.388;6.780;2022-12-20T04:17:07;10.60;99.90
10889;DHT22;5497;51.388;6.780;2022-12-20T04:19:35;10.50;99.90
10889;DHT22;5497;51.388;6.780;2022-12-20T04:22:03;10.50;99.90
10889;DHT22;5497;51.388;6.780;2022-12-20T04:24:37;10.50;99.90
10889;DHT22;5497;51.388;6.780;2022-12-20T04:27:18;10.50;99.90
10889;DHT22;5497;51.388;6.780;2022-12-20T04:29:47;10.50;99.90
10889;DHT22;5497;51.388;6.780;2022-12-20T04:32:16;10.50;99.90
10889;DHT22;5497;51.388;6.780;2022-12-20T04:34:43;10.60;99.90
10889;DHT22;5497;51.388;6.780;2022-12-20T04:37:10;10.60;99.90
10889;DHT22;5497;51.388;6.780;2022-12-20T04:39:44;10.60;99.90
10889;DHT22;5497;51.388;6.780;2022-12-20T04:42:17;10.50;99.90
10889;DHT22;5497;51.388;6.780;2022-12-20T04:44:44;10.50;99.90
10889;DHT22;5497;51.388;6.780;2022-12-20T04:47:15;10.50;99.90
10889;DHT22;5497;51.388;6.780;2022-12-20T04:49:42;10.50;99.90
10889;DHT22;5497;51.388;6.780;2022-12-20T04:52:09;10.50;99.90
10889;DHT22;5497;51.388;6.780;2022-12-20T04:54:53;10.50;99.90
10889;DHT22;5497;51.388;6.780;2022-12-20T04:57:25;10.50;99.90
10889;DHT22;5497;51.388;6.780;2022-12-20T04:59:51;10.50;99.90
10889;DHT22;5497;51.388;6.780;2022-12-20T05:02:20;10.50;99.90
10889;DHT22;5497;51.388;6.780;2022-12-20T05:04:50;10.50;99.90
10889;DHT22;5497;51.388;6.780;2022-12-20T05:07:17;10.50;99.90
10889;DHT22;5497;51.388;6.780;2022-12-20T05:09:49;10.50;99.90
10889;DHT22;5497;51.388;6.780;2022-12-20T05:12:16;10.50;99.90
10889;DHT22;5497;51.388;6.780;2022-12-20T05:14:43;10.50;99.90
10889;DHT22;5497;51.388;6.780;2022-12-20T05:17:12;10.50;99.90
10889;DHT22;5497;51.388;6.780;2022-12-20T05:19:40;10.50;99.90
10889;DHT22;5497;51.388;6.780;2022-12-20T05:22:07;10.50;99.90
10889;DHT22;5497;51.388;6.780;2022-12-20T05:25:04;10.60;99.90
10889;DHT22;5497;51.388;6.780;2022-12-20T05:27:49;10.50;99.90
10889;DHT22;5497;51.388;6.780;2022-12-20T05:30:17;10.60;99.90
10889;DHT22;5497;51.388;6.780;2022-12-20T05:32:44;10.60;99.90
10889;DHT22;5497;51.388;6.780;2022-12-20T05:35:12;10.60;99.90
10889;DHT22;5497;51.388;6.780;2022-12-20T05:37:39;10.60;99.90
10889;DHT22;5497;51.388;6.780;2022-12-20T05:40:14;10.60;99.90
10889;DHT22;5497;51.388;6.780;2022-12-20T05:42:42;10.60;99.90
10889;DHT22;5497;51.388;6.780;2022-12-20T05:45:09;10.60;99.90
10889;DHT22;5497;51.388;6.780;2022-12-20T05:47:45;10.60;99.90
10889;DHT22;5497;51.388;6.780;2022-12-20T05:50:13;10.70;99.90
10889;DHT22;5497;51.388;6.780;2022-12-20T05:53:01;10.60;99.90
10889;DHT22;5497;51.388;6.780;2022-12-20T05:55:28;10.60;99.90
10889;DHT22;5497;51.388;6.780;2022-12-20T05:57:55;10.70;99.90
10889;DHT22;5497;51.388;6.780;2022-12-20T06:00:33;10.70;99.90
10889;DHT22;5497;51.388;6.780;2022-12-20T06:03:00;10.70;99.90
10889;DHT22;5497;51.388;6.780;2022-12-20T06:05:29;10.80;99.90
10889;DHT22;5497;51.388;6.780;2022-12-20T06:07:59;10.80;99.90
10889;DHT22;5497;51.388;6.780;2022-12-20T06:10:25;10.80;99.90
10889;DHT22;5497;51.388;6.780;2022-12-20T06:12:55;11.40;99.90
10889;DHT22;5497;51.388;6.780;2022-12-20T06:15:24;10.80;99.90
10889;DHT22;5497;51.388;6.780;2022-12-20T06:17:51;10.90;99.90
10889;DHT22;5497;51.388;6.780;2022-12-20T06:20:17;10.90;99.90
10889;DHT22;5497;51.388;6.780;2022-12-20T06:22:48;10.90;99.90
10889;DHT22;5497;51.388;6.780;2022-12-20T06:25:15;10.90;99.90
10889;DHT22;5497;51.388;6.780;2022-12-20T06:27:42;11.00;99.90
10889;DHT22;5497;51.388;6.780;2022-12-20T06:30:14;11.00;99.90
10889;DHT22;5497;51.388;6.780;2022-12-20T06:33:04;11.00;99.90
10889;DHT22;5497;51.388;6.780;2022-12-20T06:35:31;11.10;99.90
10889;DHT22;5497;51.388;6.780;2022-12-20T06:37:59;11.10;99.90
10889;DHT22;5497;51.388;6.780;2022-12-20T06:40:29;11.10;99.90
10889;DHT22;5497;51.388;6.780;2022-12-20T06:42:59;11.10;99.90
10889;DHT22;5497;51.388;6.780;2022-12-20T06:45:26;11.10;99.90
10889;DHT22;5497;51.388;6.780;2022-12-20T06:47:53;11.20;99.90
10889;DHT22;5497;51.388;6.780;2022-12-20T06:50:22;11.20;99.90
10889;DHT22;5497;51.388;6.780;2022-12-20T06:52:48;11.20;99.90
10889;DHT22;5497;51.388;6.780;2022-12-20T06:55:17;11.20;99.90
10889;DHT22;5497;51.388;6.780;2022-12-20T06:57:44;11.20;99.90
10889;DHT22;5497;51.388;6.780;2022-12-20T07:00:12;11.30;99.90
10889;DHT22;5497;51.388;6.780;2022-12-20T07:02:39;11.30;99.90
10889;DHT22;5497;51.388;6.780;2022-12-20T07:05:06;11.30;99.90
10889;DHT22;5497;51.388;6.780;2022-12-20T07:07:33;11.30;99.90
10889;DHT22;5497;51.388;6.780;2022-12-20T07:09:59;11.30;99.90
10889;DHT22;5497;51.388;6.780;2022-12-20T07:12:27;11.30;99.90
10889;DHT22;5497;51.388;6.780;2022-12-20T07:14:54;11.30;99.90
10889;DHT22;5497;51.388;6.780;2022-12-20T07:17:21;11.30;99.90
10889;DHT22;5497;51.388;6.780;2022-12-20T07:19:47;11.30;99.90
10889;DHT22;5497;51.388;6.780;2022-12-20T07:22:14;11.50;99.90
10889;DHT22;5497;51.388;6.780;2022-12-20T07:24:41;11.30;99.90
10889;DHT22;5497;51.388;6.780;2022-12-20T07:27:09;11.40;99.90
10889;DHT22;5497;51.388;6.780;2022-12-20T07:29:37;11.40;99.90
10889;DHT22;5497;51.388;6.780;2022-12-20T07:32:06;11.40;99.90
10889;DHT22;5497;51.388;6.780;2022-12-20T07:34:33;11.40;99.90
10889;DHT22;5497;51.388;6.780;2022-12-20T07:37:01;11.40;99.90
10889;DHT22;5497;51.388;6.780;2022-12-20T07:39:28;11.40;99.90
10889;DHT22;5497;51.388;6.780;2022-12-20T07:41:55;11.40;99.90
10889;DHT22;5497;51.388;6.780;2022-12-20T07:44:22;11.40;99.90
10889;DHT22;5497;51.388;6.780;2022-12-20T07:46:50;11.40;99.90
10889;DHT22;5497;51.388;6.780;2022-12-20T07:49:17;11.40;99.90
10889;DHT22;5497;51.388;6.780;2022-12-20T07:51:44;11.40;99.90
10889;DHT22;5497;51.388;6.780;2022-12-20T07:54:13;11.40;99.90
10889;DHT22;5497;51.388;6.780;2022-12-20T07:56:41;11.40;99.90
10889;DHT22;5497;51.388;6.780;2022-12-20T07:59:10;11.40;99.90
10889;DHT22;5497;51.388;6.780;2022-12-20T08:01:38;11.40;99.90
10889;DHT22;5497;51.388;6.780;2022-12-20T08:04:07;11.40;99.90
10889;DHT22;5497;51.388;6.780;2022-12-20T08:06:36;11.40;99.90
10889;DHT22;5497;51.388;6.780;2022-12-20T08:09:05;11.40;99.90
10889;DHT22;5497;51.388;6.780;2022-12-20T08:11:32;11.50;99.90
10889;DHT22;5497;51.388;6.780;2022-12-20T08:14:00;11.60;99.90
10889;DHT22;5497;51.388;6.780;2022-12-20T08:16:27;11.60;99.90
10889;DHT22;5497;51.388;6.780;2022-12-20T08:18:53;11.60;99.90
10889;DHT22;5497;51.388;6.780;2022-12-20T08:21:21;11.70;99.90
10889;DHT22;5497;51.388;6.780;2022-12-20T08:23:49;11.70;99.90
10889;DHT22;5497;51.388;6.780;2022-12-20T08:26:16;11.80;99.90
10889;DHT22;5497;51.388;6.780;2022-12-20T08:28:43;11.80;99.90
10889;DHT22;5497;51.388;6.780;2022-12-20T08:31:09;11.80;99.90
10889;DHT22;5497;51.388;6.780;2022-12-20T08:33:39;11.80;99.90
10889;DHT22;5497;51.388;6.780;2022-12-20T08:36:07;11.80;99.90
10889;DHT22;5497;51.388;6.780;2022-12-20T08:38:37;11.90;99.90
10889;DHT22;5497;51.388;6.780;2022-12-20T08:41:05;11.90;99.90
10889;DHT22;5497;51.388;6.780;2022-12-20T08:43:32;11.90;99.90
10889;DHT22;5497;51.388;6.780;2022-12-20T08:46:00;12.00;99.90
10889;DHT22;5497;51.388;6.780;2022-12-20T08:48:27;12.00;99.90
10889;DHT22;5497;51.388;6.780;2022-12-20T08:50:54;12.00;99.90
10889;DHT22;5497;51.388;6.780;2022-12-20T08:53:21;12.10;99.90
10889;DHT22;5497;51.388;6.780;2022-12-20T08:55:49;12.10;99.90
10889;DHT22;5497;51.388;6.780;2022-12-20T08:58:16;12.10;99.90
10889;DHT22;5497;51.388;6.780;2022-12-20T09:00:43;12.10;99.90
10889;DHT22;5497;51.388;6.780;2022-12-20T09:03:10;12.20;99.90
10889;DHT22;5497;51.388;6.780;2022-12-20T09:05:42;12.20;99.90
10889;DHT22;5497;51.388;6.780;2022-12-20T09:08:09;12.20;99.90
10889;DHT22;5497;51.388;6.780;2022-12-20T09:10:36;12.20;99.90
10889;DHT22;5497;51.388;6.780;2022-12-20T09:13:04;12.20;99.90
10889;DHT22;5497;51.388;6.780;2022-12-20T09:15:32;12.20;99.90
10889;DHT22;5497;51.388;6.780;2022-12-20T09:17:59;12.20;99.90
10889;DHT22;5497;51.388;6.780;2022-12-20T09:20:26;12.30;99.90
10889;DHT22;5497;51.388;6.780;2022-12-20T09:22:52;12.30;99.90
10889;DHT22;5497;51.388;6.780;2022-12-20T09:25:19;12.20;99.90
10889;DHT22;5497;51.388;6.780;2022-12-20T09:27:46;12.20;99.90
10889;DHT22;5497;51.388;6.780;2022-12-20T09:30:14;12.20;99.90
10889;DHT22;5497;51.388;6.780;2022-12-20T09:32:41;12.20;99.90
10889;DHT22;5497;51.388;6.780;2022-12-20T09:35:08;12.20;99.90
10889;DHT22;5497;51.388;6.780;2022-12-20T09:37:35;12.30;99.90
10889;DHT22;5497;51.388;6.780;2022-12-20T09:40:02;12.30;99.90
10889;DHT22;5497;51.388;6.780;2022-12-20T09:42:29;12.30;99.90
10889;DHT22;5497;51.388;6.780;2022-12-20T09:44:58;12.40;99.90
10889;DHT22;5497;51.388;6.780;2022-12-20T09:47:27;12.40;99.90
10889;DHT22;5497;51.388;6.780;2022-12-20T09:49:55;12.40;99.90
10889;DHT22;5497;51.388;6.780;2022-12-20T09:52:24;12.40;99.90
10889;DHT22;5497;51.388;6.780;2022-12-20T09:54:54;12.40;99.90
10889;DHT22;5497;51.388;6.780;2022-12-20T09:57:24;12.30;99.90
10889;DHT22;5497;51.388;6.780;2022-12-20T09:59:54;12.30;99.90
10889;DHT22;5497;51.388;6.780;2022-12-20T10:02:22;12.40;99.90
10889;DHT22;5497;51.388;6.780;2022-12-20T10:04:51;12.40;99.90
10889;DHT22;5497;51.388;6.780;2022-12-20T10:07:21;12.40;99.90
10889;DHT22;5497;51.388;6.780;2022-12-20T10:09:58;12.30;99.90
10889;DHT22;5497;51.388;6.780;2022-12-20T10:12:29;12.40;99.90
10889;DHT22;5497;51.388;6.780;2022-12-20T10:17:45;12.40;99.90
10889;DHT22;5497;51.388;6.780;2022-12-20T10:20:24;12.40;99.90
10889;DHT22;5497;51.388;6.780;2022-12-20T10:22:55;12.40;99.90
10889;DHT22;5497;51.388;6.780;2022-12-20T10:25:25;12.50;99.90
10889;DHT22;5497;51.388;6.780;2022-12-20T10:27:54;12.60;99.90
10889;DHT22;5497;51.388;6.780;2022-12-20T10:30:25;12.70;99.90
10889;DHT22;5497;51.388;6.780;2022-12-20T10:32:53;12.70;99.90
10889;DHT22;5497;51.388;6.780;2022-12-20T10:35:22;12.70;99.90
10889;DHT22;5497;51.388;6.780;2022-12-20T10:37:57;12.80;99.90
10889;DHT22;5497;51.388;6.780;2022-12-20T10:40:25;12.80;99.90
10889;DHT22;5497;51.388;6.780;2022-12-20T10:42:52;12.80;99.90
10889;DHT22;5497;51.388;6.780;2022-12-20T10:45:24;12.80;99.90
10889;DHT22;5497;51.388;6.780;2022-12-20T10:47:57;12.80;99.90
10889;DHT22;5497;51.388;6.780;2022-12-20T10:50:26;12.80;99.90
10889;DHT22;5497;51.388;6.780;2022-12-20T10:53:07;12.80;99.90
10889;DHT22;5497;51.388;6.780;2022-12-20T10:55:38;12.80;99.90
10889;DHT22;5497;51.388;6.780;2022-12-20T10:58:10;12.90;99.90
10889;DHT22;5497;51.388;6.780;2022-12-20T11:00:39;12.90;99.90
10889;DHT22;5497;51.388;6.780;2022-12-20T11:03:10;12.90;99.90
10889;DHT22;5497;51.388;6.780;2022-12-20T11:05:39;12.90;99.90
10889;DHT22;5497;51.388;6.780;2022-12-20T11:08:08;12.90;99.90
10889;DHT22;5497;51.388;6.780;2022-12-20T11:10:35;12.80;99.90
10889;DHT22;5497;51.388;6.780;2022-12-20T11:13:03;12.80;99.90
10889;DHT22;5497;51.388;6.780;2022-12-20T11:15:31;12.80;99.90
10889;DHT22;5497;51.388;6.780;2022-12-20T11:18:00;12.80;99.90
10889;DHT22;5497;51.388;6.780;2022-12-20T11:20:31;12.70;99.90
10889;DHT22;5497;51.388;6.780;2022-12-20T11:23:05;12.70;99.90
10889;DHT22;5497;51.388;6.780;2022-12-20T11:25:38;12.70;99.90
10889;DHT22;5497;51.388;6.780;2022-12-20T11:28:20;12.70;99.90
10889;DHT22;5497;51.388;6.780;2022-12-20T11:30:51;12.70;99.90
10889;DHT22;5497;51.388;6.780;2022-12-20T11:33:25;12.70;99.90
10889;DHT22;5497;51.388;6.780;2022-12-20T11:35:57;12.70;99.90
10889;DHT22;5497;51.388;6.780;2022-12-20T11:38:37;12.70;99.90
10889;DHT22;5497;51.388;6.780;2022-12-20T11:41:10;12.70;99.90
10889;DHT22;5497;51.388;6.780;2022-12-20T11:43:45;12.70;99.90
10889;DHT22;5497;51.388;6.780;2022-12-20T11:46:19;12.70;99.90
10889;DHT22;5497;51.388;6.780;2022-12-20T11:48:51;12.70;99.90
10889;DHT22;5497;51.388;6.780;2022-12-20T11:51:22;12.70;99.90
10889;DHT22;5497;51.388;6.780;2022-12-20T11:53:51;12.60;99.90
10889;DHT22;5497;51.388;6.780;2022-12-20T11:56:20;12.70;99.90
10889;DHT22;5497;51.388;6.780;2022-12-20T11:58:49;12.70;99.90
10889;DHT22;5497;51.388;6.780;2022-12-20T12:01:18;12.80;99.90
10889;DHT22;5497;51.388;6.780;2022-12-20T12:03:51;12.80;99.90
10889;DHT22;5497;51.388;6.780;2022-12-20T12:06:22;12.80;99.90
10889;DHT22;5497;51.388;6.780;2022-12-20T12:08:53;12.90;99.90
10889;DHT22;5497;51.388;6.780;2022-12-20T12:11:23;12.90;99.90
10889;DHT22;5497;51.388;6.780;2022-12-20T12:13:51;13.00;99.90
10889;DHT22;5497;51.388;6.780;2022-12-20T12:16:20;13.00;99.90
10889;DHT22;5497;51.388;6.780;2022-12-20T12:18:49;13.10;99.90
10889;DHT22;5497;51.388;6.780;2022-12-20T12:21:18;13.10;99.90
10889;DHT22;5497;51.388;6.780;2022-12-20T12:23:48;13.10;99.90
10889;DHT22;5497;51.388;6.780;2022-12-20T12:26:22;13.20;99.90
10889;DHT22;5497;51.388;6.780;2022-12-20T12:28:52;13.20;99.90
10889;DHT22;5497;51.388;6.780;2022-12-20T12:31:21;13.20;99.90
10889;DHT22;5497;51.388;6.780;2022-12-20T12:33:52;13.20;99.90
10889;DHT22;5497;51.388;6.780;2022-12-20T12:36:33;13.20;99.90
10889;DHT22;5497;51.388;6.780;2022-12-20T12:39:15;13.20;99.90
10889;DHT22;5497;51.388;6.780;2022-12-20T12:44:34;13.20;99.90
10889;DHT22;5497;51.388;6.780;2022-12-20T12:47:03;13.20;99.90
10889;DHT22;5497;51.388;6.780;2022-12-20T12:49:32;13.20;99.90
10889;DHT22;5497;51.388;6.780;2022-12-20T12:51:59;13.20;99.90
10889;DHT22;5497;51.388;6.780;2022-12-20T12:54:27;13.20;99.90
10889;DHT22;5497;51.388;6.780;2022-12-20T12:56:58;13.10;99.90
10889;DHT22;5497;51.388;6.780;2022-12-20T13:02:24;12.80;99.90
10889;DHT22;5497;51.388;6.780;2022-12-20T13:04:52;12.60;99.90
10889;DHT22;5497;51.388;6.780;2022-12-20T13:07:27;12.50;99.90
10889;DHT22;5497;51.388;6.780;2022-12-20T13:09:56;12.50;99.90
10889;DHT22;5497;51.388;6.780;2022-12-20T13:18:02;12.30;99.90
10889;DHT22;5497;51.388;6.780;2022-12-20T13:20:43;12.30;99.90
10889;DHT22;5497;51.388;6.780;2022-12-20T13:23:30;12.30;99.90
10889;DHT22;5497;51.388;6.780;2022-12-20T13:25:59;12.30;99.90
10889;DHT22;5497;51.388;6.780;2022-12-20T13:28:47;12.30;99.90
10889;DHT22;5497;51.388;6.780;2022-12-20T13:34:22;12.30;99.90
10889;DHT22;5497;51.388;6.780;2022-12-20T13:36:58;12.30;99.90
10889;DHT22;5497;51.388;6.780;2022-12-20T13:39:29;12.30;99.90
10889;DHT22;5497;51.388;6.780;2022-12-20T13:42:05;12.20;99.90
10889;DHT22;5497;51.388;6.780;2022-12-20T13:44:39;12.10;99.90
10889;DHT22;5497;51.388;6.780;2022-12-20T13:47:16;12.10;99.90
10889;DHT22;5497;51.388;6.780;2022-12-20T13:49:47;12.00;99.90
10889;DHT22;5497;51.388;6.780;2022-12-20T13:52:21;12.00;99.90
10889;DHT22;5497;51.388;6.780;2022-12-20T13:54:51;11.90;99.90
10889;DHT22;5497;51.388;6.780;2022-12-20T13:57:20;11.90;99.90
10889;DHT22;5497;51.388;6.780;2022-12-20T13:59:51;11.90;99.90
10889;DHT22;5497;51.388;6.780;2022-12-20T14:02:20;11.80;99.90
10889;DHT22;5497;51.388;6.780;2022-12-20T14:04:52;11.80;99.90
10889;DHT22;5497;51.388;6.780;2022-12-20T14:07:24;11.80;99.90
10889;DHT22;5497;51.388;6.780;2022-12-20T14:09:55;11.70;99.90
10889;DHT22;5497;51.388;6.780;2022-12-20T14:12:22;11.70;99.90
10889;DHT22;5497;51.388;6.780;2022-12-20T14:14:50;11.70;99.90
10889;DHT22;5497;51.388;6.780;2022-12-20T14:17:19;11.60;99.90
10889;DHT22;5497;51.388;6.780;2022-12-20T14:20:00;11.60;99.90
10889;DHT22;5497;51.388;6.780;2022-12-20T14:22:29;11.60;99.90
10889;DHT22;5497;51.388;6.780;2022-12-20T14:24:56;11.60;99.90
10889;DHT22;5497;51.388;6.780;2022-12-20T14:27:23;11.70;99.90
10889;DHT22;5497;51.388;6.780;2022-12-20T14:29:56;11.60;99.90
10889;DHT22;5497;51.388;6.780;2022-12-20T14:32:23;11.60;99.90
10889;DHT22;5497;51.388;6.780;2022-12-20T14:34:50;11.60;99.90
10889;DHT22;5497;51.388;6.780;2022-12-20T14:37:30;11.70;99.90
10889;DHT22;5497;51.388;6.780;2022-12-20T14:40:00;12.90;99.90
10889;DHT22;5497;51.388;6.780;2022-12-20T14:42:28;11.60;99.90
10889;DHT22;5497;51.388;6.780;2022-12-20T14:45:02;11.60;99.90
10889;DHT22;5497;51.388;6.780;2022-12-20T14:47:29;11.60;99.90
10889;DHT22;5497;51.388;6.780;2022-12-20T14:49:57;11.60;99.90
10889;DHT22;5497;51.388;6.780;2022-12-20T14:52:26;11.50;99.90
10889;DHT22;5497;51.388;6.780;2022-12-20T14:54:57;11.50;99.90
10889;DHT22;5497;51.388;6.780;2022-12-20T14:57:26;11.50;99.90
10889;DHT22;5497;51.388;6.780;2022-12-20T14:59:59;11.40;99.90
10889;DHT22;5497;51.388;6.780;2022-12-20T15:02:32;11.40;99.90
10889;DHT22;5497;51.388;6.780;2022-12-20T15:05:05;11.40;99.90
10889;DHT22;5497;51.388;6.780;2022-12-20T15:07:32;11.30;99.90
10889;DHT22;5497;51.388;6.780;2022-12-20T15:10:01;11.30;99.90
10889;DHT22;5497;51.388;6.780;2022-12-20T15:12:29;11.30;99.90
10889;DHT22;5497;51.388;6.780;2022-12-20T15:14:56;11.30;99.90
10889;DHT22;5497;51.388;6.780;2022-12-20T15:17:23;11.30;99.90
10889;DHT22;5497;51.388;6.780;2022-12-20T15:19:50;11.20;99.90
10889;DHT22;5497;51.388;6.780;2022-12-20T15:22:18;11.20;99.90
10889;DHT22;5497;51.388;6.780;2022-12-20T15:24:46;11.20;99.90
10889;DHT22;5497;51.388;6.780;2022-12-20T15:27:14;11.20;99.90
10889;DHT22;5497;51.388;6.780;2022-12-20T15:29:42;11.20;99.90
10889;DHT22;5497;51.388;6.780;2022-12-20T15:32:13;11.20;99.90
10889;DHT22;5497;51.388;6.780;2022-12-20T15:34:41;11.10;99.90
10889;DHT22;5497;51.388;6.780;2022-12-20T15:37:08;11.10;99.90
10889;DHT22;5497;51.388;6.780;2022-12-20T15:39:36;11.10;99.90
10889;DHT22;5497;51.388;6.780;2022-12-20T15:42:03;11.10;99.90
10889;DHT22;5497;51.388;6.780;2022-12-20T15:44:32;11.10;99.90
10889;DHT22;5497;51.388;6.780;2022-12-20T15:47:00;11.10;99.90
10889;DHT22;5497;51.388;6.780;2022-12-20T15:49:34;11.10;99.90
10889;DHT22;5497;51.388;6.780;2022-12-20T15:52:02;11.00;99.90
10889;DHT22;5497;51.388;6.780;2022-12-20T15:54:29;11.00;99.90
10889;DHT22;5497;51.388;6.780;2022-12-20T15:56:57;11.00;99.90
10889;DHT22;5497;51.388;6.780;2022-12-20T15:59:28;11.00;99.90
10889;DHT22;5497;51.388;6.780;2022-12-20T16:01:57;11.00;99.90
10889;DHT22;5497;51.388;6.780;2022-12-20T16:04:23;11.00;99.90
10889;DHT22;5497;51.388;6.780;2022-12-20T16:06:50;11.00;99.90
10889;DHT22;5497;51.388;6.780;2022-12-20T16:09:19;11.00;99.90
10889;DHT22;5497;51.388;6.780;2022-12-20T16:11:46;11.00;99.90
10889;DHT22;5497;51.388;6.780;2022-12-20T16:14:14;11.00;99.90
10889;DHT22;5497;51.388;6.780;2022-12-20T16:16:41;11.00;99.90
10889;DHT22;5497;51.388;6.780;2022-12-20T16:19:10;11.00;99.90
10889;DHT22;5497;51.388;6.780;2022-12-20T16:21:39;11.00;99.90
10889;DHT22;5497;51.388;6.780;2022-12-20T16:24:09;11.00;99.90
10889;DHT22;5497;51.388;6.780;2022-12-20T16:26:36;11.00;99.90